Time;durP1;ratioP1;P1;durP2;ratioP2;P2;SDS_P1;SDS_P2;PMS_P1;PMS_P2;Temp;Humidity;BMP_temperature;BMP_pressure;BME280_temperature;BME280_humidity;BME280_pressure;Samples;Min_cycle;Max_cycle;Signal;HPM_P1;HPM_P2
2023/07/14 01:13:18;;;;;;;;;11.00;10.00;;;;;20.61;45.59;101492.44;2828262;23;46215;-89
2023/07/14 01:15:43;;;;;;;;;10.67;10.67;;;;;20.54;45.65;101488.50;4905070;28;45306;-89
2023/07/14 01:18:10;;;;;;;;;10.33;9.33;;;;;20.53;45.48;101487.69;4903693;28;46997;-90
2023/07/14 01:20:38;;;;;;;;;11.67;10.67;;;;;20.59;46.00;101498.78;4920077;28;45524;-89
2023/07/14 01:23:22;;;;;;;;;11.00;11.00;;;;;20.58;46.07;101489.13;4908595;28;45347;-89
2023/07/14 01:25:51;;;;;;;;;15.00;10.33;;;;;20.55;46.10;101488.41;4889195;29;45347;-89
2023/07/14 01:28:17;;;;;;;;;9.33;9.00;;;;;20.42;45.84;101466.38;4906219;28;46025;-89
2023/07/14 01:30:43;;;;;;;;;10.33;9.00;;;;;20.44;45.82;101472.41;4901856;29;45399;-89
2023/07/14 01:33:12;;;;;;;;;9.67;8.33;;;;;20.48;46.16;101478.34;4886851;29;46026;-89
2023/07/14 01:35:42;;;;;;;;;13.00;10.50;;;;;20.39;46.36;101456.00;4886091;29;45652;-89
2023/07/14 01:38:09;;;;;;;;;9.00;7.50;;;;;20.39;46.36;101462.16;4891404;28;45925;-89
2023/07/14 01:40:36;;;;;;;;;12.00;10.00;;;;;20.37;46.51;101456.09;4918884;28;45690;-90
2023/07/14 01:43:03;;;;;;;;;9.00;8.00;;;;;20.23;46.73;101437.69;4920749;28;45379;-89
2023/07/14 01:45:36;;;;;;;;;11.75;9.50;;;;;20.28;46.64;101446.16;4887167;29;45355;-89
2023/07/14 01:48:03;;;;;;;;;11.00;10.00;;;;;20.25;46.69;101446.34;4885385;29;47359;-89
2023/07/14 01:50:43;;;;;;;;;12.67;9.00;;;;;20.28;46.68;101454.09;4891391;28;45447;-89
2023/07/14 01:53:15;;;;;;;;;9.67;8.67;;;;;20.21;47.13;101450.13;4917776;28;45291;-89
2023/07/14 01:55:44;;;;;;;;;10.67;9.67;;;;;20.19;46.91;101450.25;4885098;29;45303;-89
2023/07/14 01:58:18;;;;;;;;;10.00;9.00;;;;;20.16;47.10;101446.03;4885701;28;46471;-89
2023/07/14 02:00:47;;;;;;;;;12.00;9.00;;;;;20.16;46.89;101448.66;4914718;28;46274;-89
2023/07/14 02:03:18;;;;;;;;;10.67;10.33;;;;;20.16;47.18;101445.16;4916928;28;45533;-89
2023/07/14 02:05:44;;;;;;;;;5.00;5.00;;;;;20.07;47.13;101438.69;4921443;28;45351;-90
2023/07/14 02:08:17;;;;;;;;;10.75;8.25;;;;;20.11;47.54;101436.69;4920160;28;45772;-89
2023/07/14 02:10:42;;;;;;;;;9.25;8.50;;;;;20.02;47.78;101436.34;4899081;29;45336;-89
2023/07/14 02:13:11;;;;;;;;;11.50;8.75;;;;;20.05;47.67;101437.09;4888382;29;45352;-89
2023/07/14 02:15:36;;;;;;;;;11.67;10.33;;;;;19.96;47.54;101428.84;4913506;28;45482;-89
2023/07/14 02:18:03;;;;;;;;;12.00;10.00;;;;;19.98;47.81;101434.84;4931563;28;47026;-89
2023/07/14 02:20:38;;;;;;;;;11.25;10.75;;;;;19.94;47.56;101427.22;4918482;28;47127;-89
2023/07/14 02:23:08;;;;;;;;;14.50;11.00;;;;;19.92;47.93;101432.59;4919690;28;45408;-89
2023/07/14 02:25:46;;;;;;;;;8.00;7.33;;;;;19.94;48.13;101443.06;4913730;28;45403;-89
2023/07/14 02:28:13;;;;;;;;;15.75;12.00;;;;;19.87;47.65;101434.69;4927981;28;47208;-89
2023/07/14 02:30:42;;;;;;;;;4.00;4.00;;;;;19.85;47.61;101432.13;4916090;28;45848;-89
2023/07/14 02:33:10;;;;;;;;;10.25;10.00;;;;;19.87;48.14;101439.97;4922204;28;45279;-89
2023/07/14 02:36:02;;;;;;;;;12.67;11.33;;;;;19.85;47.92;101444.47;4901151;28;45505;-89
2023/07/14 02:38:28;;;;;;;;;9.00;8.25;;;;;19.82;47.90;101440.25;4903749;28;48114;-89
2023/07/14 02:41:00;;;;;;;;;9.33;9.33;;;;;19.75;47.93;101434.53;4902442;28;45464;-89
2023/07/14 02:43:26;;;;;;;;;11.33;10.33;;;;;19.65;48.07;101425.50;4900752;29;45309;-89
2023/07/14 02:45:56;;;;;;;;;11.25;9.50;;;;;19.72;48.25;101439.16;4907589;28;45278;-89
2023/07/14 02:48:43;;;;;;;;;9.00;9.00;;;;;19.68;48.32;101429.72;4917173;28;47421;-89
2023/07/14 02:51:10;;;;;;;;;7.50;7.25;;;;;19.62;48.31;101429.16;4919265;28;45543;-89
2023/07/14 02:53:35;;;;;;;;;11.33;8.33;;;;;19.60;48.35;101432.84;4920804;28;45300;-89
2023/07/14 02:56:02;;;;;;;;;9.25;8.75;;;;;19.54;48.80;101431.47;4910766;28;45574;-90
2023/07/14 02:58:27;;;;;;;;;11.00;9.50;;;;;19.49;48.56;101421.19;4900119;29;46482;-89
2023/07/14 03:00:53;;;;;;;;;9.00;9.00;;;;;19.45;49.00;101421.47;4906632;28;45405;-89
2023/07/14 03:03:19;;;;;;;;;11.00;10.50;;;;;19.45;49.30;101424.13;4908818;28;45456;-89
2023/07/14 03:05:44;;;;;;;;;8.75;8.75;;;;;19.38;49.53;101407.81;4916266;28;45323;-89
2023/07/14 03:08:17;;;;;;;;;10.25;9.50;;;;;19.41;49.14;101423.47;4901318;29;46308;-89
2023/07/14 03:10:45;;;;;;;;;10.25;10.00;;;;;19.30;49.31;101416.19;4926738;28;45875;-89
2023/07/14 03:13:11;;;;;;;;;10.00;9.50;;;;;19.34;49.04;101423.00;4899804;29;45302;-89
2023/07/14 03:15:36;;;;;;;;;10.33;8.00;;;;;19.27;49.40;101418.19;4900799;28;45618;-88
2023/07/14 03:18:02;;;;;;;;;8.25;8.00;;;;;19.21;49.55;101407.06;4909948;28;46300;-89
2023/07/14 03:20:28;;;;;;;;;9.75;9.75;;;;;19.17;49.64;101396.81;4919603;28;45321;-89
2023/07/14 03:22:53;;;;;;;;;5.00;5.00;;;;;19.14;50.02;101383.81;4917282;28;45960;-89
2023/07/14 03:25:19;;;;;;;;;10.00;10.00;;;;;19.19;49.75;101394.91;4918714;28;45537;-89
2023/07/14 03:27:46;;;;;;;;;9.50;9.50;;;;;19.15;50.25;101393.41;4918801;28;47041;-89
2023/07/14 03:30:13;;;;;;;;;10.75;8.25;;;;;18.94;50.23;101364.78;4917921;28;45427;-89
2023/07/14 03:32:39;;;;;;;;;10.25;10.00;;;;;18.93;50.26;101368.34;4903383;28;45410;-89
2023/07/14 03:35:05;;;;;;;;;11.50;10.25;;;;;19.10;50.36;101391.06;4905814;28;45596;-89
2023/07/14 03:37:30;;;;;;;;;9.25;9.25;;;;;19.01;50.67;101384.53;4920052;28;46107;-91
2023/07/14 03:39:55;;;;;;;;;10.00;10.00;;;;;18.82;50.51;101356.66;4931978;28;45725;-89
2023/07/14 03:42:21;;;;;;;;;12.75;11.00;;;;;18.94;50.40;101376.16;4899877;29;45430;-89
2023/07/14 03:44:47;;;;;;;;;12.75;10.75;;;;;19.01;51.06;101386.31;4900122;29;45576;-90
2023/07/14 03:47:12;;;;;;;;;12.75;10.25;;;;;19.04;51.08;101392.31;4915025;28;47768;-89
2023/07/14 03:49:37;;;;;;;;;12.50;11.50;;;;;18.91;51.16;101370.22;4920060;28;45440;-89
2023/07/14 03:52:03;;;;;;;;;10.25;10.00;;;;;19.02;51.12;101388.88;4931597;28;45437;-87
2023/07/14 03:54:30;;;;;;;;;12.00;12.00;;;;;19.05;51.20;101390.50;4932262;28;45520;-87
2023/07/14 03:56:55;;;;;;;;;12.50;12.50;;;;;19.03;51.53;101377.41;4917060;28;47925;-87
2023/07/14 03:59:21;;;;;;;;;13.25;13.25;;;;;19.00;51.32;101374.06;4918541;28;45620;-88
2023/07/14 04:01:47;;;;;;;;;10.25;10.25;;;;;19.02;51.40;101369.56;4918478;28;45242;-87
2023/07/14 04:04:13;;;;;;;;;13.75;12.50;;;;;19.04;51.52;101365.94;4919608;28;45310;-87
2023/07/14 04:06:38;;;;;;;;;11.50;11.00;;;;;19.02;51.79;101373.03;4933804;28;47627;-87
2023/07/14 04:09:04;;;;;;;;;11.25;10.75;;;;;19.04;51.80;101376.47;4934452;28;45311;-92
2023/07/14 04:11:32;;;;;;;;;12.25;11.50;;;;;19.05;51.82;101370.25;4918237;28;45356;-89
2023/07/14 04:13:58;;;;;;;;;11.25;11.25;;;;;18.99;51.79;101357.44;4918827;28;45461;-89
2023/07/14 04:16:23;;;;;;;;;13.75;11.50;;;;;19.11;51.29;101378.72;4912814;28;46099;-89
2023/07/14 04:18:49;;;;;;;;;10.00;10.00;;;;;19.13;51.55;101374.19;4916585;28;45449;-88
2023/07/14 04:21:14;;;;;;;;;8.50;7.50;;;;;19.14;51.96;101362.69;4933087;28;45405;-88
2023/07/14 04:23:43;;;;;;;;;9.75;9.75;;;;;19.07;51.94;101354.34;4918146;28;45343;-88
2023/07/14 04:26:08;;;;;;;;;11.00;10.00;;;;;19.20;51.57;101363.16;4916999;28;48373;-88
2023/07/14 04:28:35;;;;;;;;;6.75;6.75;;;;;19.23;51.38;101363.00;4928744;28;45489;-89
2023/07/14 04:31:01;;;;;;;;;10.00;6.75;;;;;19.25;51.31;101357.59;4910839;28;45624;-88
2023/07/14 04:33:27;;;;;;;;;11.75;8.00;;;;;19.23;51.60;101348.94;4933998;28;45356;-89
2023/07/14 04:35:54;;;;;;;;;9.00;9.00;;;;;19.22;51.39;101341.97;4918955;28;45607;-88
2023/07/14 04:38:22;;;;;;;;;9.00;7.25;;;;;19.21;51.06;101335.84;4919621;28;45464;-90
2023/07/14 04:40:48;;;;;;;;;10.50;7.00;;;;;19.43;51.05;101367.91;4930938;28;45413;-90
2023/07/14 04:43:14;;;;;;;;;9.50;7.25;;;;;19.48;50.90;101355.28;4902357;28;45374;-90
2023/07/14 04:45:42;;;;;;;;;7.25;5.50;;;;;19.27;50.52;101313.50;4919664;28;46542;-90
2023/07/14 04:48:13;;;;;;;;;6.75;5.00;;;;;19.31;50.51;101308.88;4935821;28;45382;-91
2023/07/14 04:50:38;;;;;;;;;3.50;2.50;;;;;19.34;50.37;101300.75;4914520;28;45340;-91
2023/07/14 04:53:05;;;;;;;;;5.50;5.50;;;;;19.65;50.54;101342.78;4918466;28;46129;-91
2023/07/14 04:55:34;;;;;;;;;7.25;4.75;;;;;19.61;50.18;101326.31;4918831;28;47341;-91
2023/07/14 04:58:00;;;;;;;;;4.50;3.75;;;;;19.69;50.43;101333.72;4918933;28;45381;-91
2023/07/14 05:00:25;;;;;;;;;2.00;2.00;;;;;19.74;50.13;101339.56;4918957;28;45339;-92
2023/07/14 05:02:51;;;;;;;;;4.75;4.75;;;;;19.75;49.97;101320.97;4914460;28;45475;-91
2023/07/14 05:05:22;;;;;;;;;6.00;5.00;;;;;19.82;49.89;101310.88;4899189;29;47841;-92
2023/07/14 05:07:48;;;;;;;;;6.33;5.00;;;;;19.82;49.57;101308.22;4905803;28;45472;-91
2023/07/14 05:10:15;;;;;;;;;6.25;6.25;;;;;19.77;49.65;101300.59;4910598;28;45565;-92
2023/07/14 05:12:40;;;;;;;;;5.75;5.00;;;;;19.90;49.88;101315.63;4925813;28;45641;-91
2023/07/14 05:15:10;;;;;;;;;6.67;5.00;;;;;19.94;49.66;101311.00;4929292;28;45791;-91
2023/07/14 05:17:43;;;;;;;;;3.75;3.75;;;;;19.93;49.48;101290.78;4899128;29;45323;-90
2023/07/14 05:20:10;;;;;;;;;4.33;4.33;;;;;19.82;49.92;101273.03;4899550;29;45342;-90
2023/07/14 05:22:44;;;;;;;;;6.00;6.00;;;;;19.97;49.24;101289.69;4899063;29;45677;-91
2023/07/14 05:25:11;;;;;;;;;4.67;4.67;;;;;20.01;49.53;101291.16;4898928;29;46189;-90
2023/07/14 05:27:38;;;;;;;;;3.67;3.67;;;;;19.99;49.52;101274.56;4898521;28;45657;-91
2023/07/14 05:30:05;;;;;;;;;4.33;4.33;;;;;19.99;49.29;101264.84;4928780;28;45428;-90
2023/07/14 05:32:32;;;;;;;;;4.00;3.00;;;;;20.01;48.85;101246.25;4921376;28;45670;-91
2023/07/14 05:34:57;;;;;;;;;3.33;3.00;;;;;19.98;49.21;101220.91;4910513;28;47023;-90
2023/07/14 05:37:22;;;;;;;;;3.00;3.00;;;;;20.04;48.89;101216.97;4917641;28;45621;-90
2023/07/14 05:39:48;;;;;;;;;3.00;3.00;;;;;20.06;48.55;101225.66;4903232;29;45372;-91
2023/07/14 05:42:13;;;;;;;;;4.25;4.00;;;;;19.97;48.37;101218.38;4903257;28;45453;-91
2023/07/14 05:44:39;;;;;;;;;3.00;3.00;;;;;20.08;48.79;101242.25;4903507;29;46047;-91
2023/07/14 05:47:05;;;;;;;;;3.00;3.00;;;;;20.08;48.13;101255.47;4908242;28;45524;-90
2023/07/14 05:49:30;;;;;;;;;4.00;3.00;;;;;20.13;48.20;101269.19;4905680;28;45527;-90
2023/07/14 05:51:56;;;;;;;;;2.00;2.00;;;;;20.06;48.33;101257.38;4919277;28;45398;-90
2023/07/14 05:54:22;;;;;;;;;2.67;2.67;;;;;20.12;48.07;101259.59;4902681;29;46404;-90
2023/07/14 05:56:50;;;;;;;;;3.67;3.67;;;;;20.07;48.69;101250.28;4907418;28;45579;-91
2023/07/14 05:59:17;;;;;;;;;7.67;4.00;;;;;20.27;48.21;101273.53;4912649;28;45471;-90
2023/07/14 06:01:42;;;;;;;;;4.00;4.00;;;;;20.32;48.30;101261.81;4922170;28;45698;-90
2023/07/14 06:04:08;;;;;;;;;4.00;4.00;;;;;20.33;48.03;101266.13;4917747;28;46895;-90
2023/07/14 06:06:34;;;;;;;;;3.00;3.00;;;;;20.27;47.63;101252.41;4921900;28;45381;-90
2023/07/14 06:09:00;;;;;;;;;7.00;3.67;;;;;20.33;47.72;101260.84;4919384;28;45654;-91
2023/07/14 06:11:27;;;;;;;;;5.50;4.00;;;;;20.21;47.92;101220.25;4921819;28;47308;-90
2023/07/14 06:13:52;;;;;;;;;6.00;5.00;;;;;20.37;47.91;101230.63;4921502;28;45588;-90
2023/07/14 06:16:21;;;;;;;;;3.75;3.00;;;;;20.40;48.00;101235.69;4913854;28;45328;-90
2023/07/14 06:18:46;;;;;;;;;6.50;5.25;;;;;20.21;47.99;101212.34;4885545;28;45438;-90
2023/07/14 06:21:12;;;;;;;;;3.75;3.75;;;;;20.45;47.34;101265.28;4898177;28;45402;-90
2023/07/14 06:23:37;;;;;;;;;7.00;5.00;;;;;20.42;47.41;101249.66;4909434;28;45858;-90
2023/07/14 06:26:02;;;;;;;;;5.25;4.75;;;;;20.42;47.69;101239.91;4888366;28;46200;-90
2023/07/14 06:28:28;;;;;;;;;3.67;3.00;;;;;20.45;47.32;101232.72;4894369;28;45284;-90
2023/07/14 06:30:58;;;;;;;;;5.75;4.00;;;;;20.48;47.33;101266.88;4908102;28;45546;-92
2023/07/14 06:33:26;;;;;;;;;3.75;3.75;;;;;20.39;47.42;101252.50;4915080;28;45556;-92
2023/07/14 06:35:53;;;;;;;;;5.00;5.00;;;;;20.46;47.72;101258.22;4920122;28;45463;-88
2023/07/14 06:38:19;;;;;;;;;6.00;6.00;;;;;20.36;47.65;101237.69;4915531;28;45359;-89
2023/07/14 06:40:44;;;;;;;;;5.50;4.50;;;;;20.48;47.46;101243.94;4901216;28;45273;-89
2023/07/14 06:43:10;;;;;;;;;4.50;4.50;;;;;20.53;47.41;101230.38;4906428;28;45475;-88
2023/07/14 06:45:36;;;;;;;;;5.00;5.00;;;;;20.54;47.36;101218.84;4899642;28;45436;-89
2023/07/14 06:48:02;;;;;;;;;6.00;5.33;;;;;20.41;47.18;101201.22;4903003;28;45484;-88
2023/07/14 06:50:28;;;;;;;;;6.00;6.00;;;;;20.65;47.57;101224.22;4917965;28;45504;-88
2023/07/14 06:52:53;;;;;;;;;6.00;4.00;;;;;20.69;47.42;101224.88;4906648;28;45349;-94
2023/07/14 06:55:19;;;;;;;;;5.00;5.00;;;;;20.77;47.35;101230.44;4910380;28;45551;-88
2023/07/14 06:57:44;;;;;;;;;4.33;4.33;;;;;20.84;47.37;101228.22;4898940;29;45384;-88
2023/07/14 07:00:12;;;;;;;;;4.00;4.00;;;;;20.75;47.02;101202.41;4893337;28;45553;-88
2023/07/14 07:02:39;;;;;;;;;9.00;6.00;;;;;20.95;47.17;101222.16;4912969;28;45459;-90
2023/07/14 07:05:06;;;;;;;;;7.00;5.00;;;;;21.02;46.62;101223.38;4905206;28;45867;-88
2023/07/14 07:07:32;;;;;;;;;7.33;6.67;;;;;21.11;46.79;101219.25;4912016;28;46144;-88
2023/07/14 07:10:01;;;;;;;;;5.00;4.67;;;;;21.16;46.87;101217.09;4913207;28;45684;-88
2023/07/14 07:12:26;;;;;;;;;5.00;5.00;;;;;21.18;46.32;101196.66;4911611;28;46341;-89
2023/07/14 07:14:52;;;;;;;;;5.67;5.00;;;;;21.32;46.47;101203.59;4899778;29;45494;-89
2023/07/14 07:17:17;;;;;;;;;7.67;6.00;;;;;21.33;46.50;101186.75;4892868;28;45483;-89
2023/07/14 07:19:43;;;;;;;;;6.67;4.67;;;;;21.51;45.83;101199.53;4910725;28;45454;-89
2023/07/14 07:22:08;;;;;;;;;7.00;5.67;;;;;21.60;45.87;101198.84;4891709;28;48105;-89
2023/07/14 07:24:34;;;;;;;;;4.00;4.00;;;;;21.70;45.89;101193.72;4890505;28;45378;-89
2023/07/14 07:27:01;;;;;;;;;5.00;4.33;;;;;21.81;45.54;101190.28;4912903;28;45469;-88
2023/07/14 07:29:26;;;;;;;;;5.67;4.33;;;;;21.72;45.79;101162.66;4914593;28;45533;-89
2023/07/14 07:31:52;;;;;;;;;6.00;5.00;;;;;21.94;45.42;101187.50;4902326;28;47637;-89
2023/07/14 07:34:17;;;;;;;;;5.00;5.00;;;;;22.02;45.45;101185.13;4900916;28;46048;-89
2023/07/14 07:36:43;;;;;;;;;8.67;6.00;;;;;22.00;45.09;101160.53;4914526;28;45473;-89
2023/07/14 07:39:08;;;;;;;;;3.67;1.67;;;;;22.19;44.89;101180.31;4913025;28;46582;-88
2023/07/14 07:41:34;;;;;;;;;4.67;4.67;;;;;22.21;45.49;101178.34;4899444;28;47036;-88
2023/07/14 07:44:00;;;;;;;;;8.67;4.67;;;;;22.28;45.34;101173.44;4916070;28;45481;-92
2023/07/14 07:46:27;;;;;;;;;9.67;8.00;;;;;22.37;45.06;101177.16;4900470;28;45338;-91
2023/07/14 07:48:53;;;;;;;;;4.33;4.33;;;;;22.42;44.72;101181.13;4891015;28;45433;-91
2023/07/14 07:51:19;;;;;;;;;5.00;4.33;;;;;22.26;44.50;101148.88;4913450;28;45491;-91
2023/07/14 07:53:44;;;;;;;;;4.33;4.33;;;;;22.36;44.37;101152.44;4910961;28;45314;-92
2023/07/14 07:56:10;;;;;;;;;5.33;3.67;;;;;22.53;44.80;101171.50;4889280;28;45501;-92
2023/07/14 07:58:36;;;;;;;;;4.33;4.00;;;;;22.57;44.07;101162.31;4919066;28;45498;-93
2023/07/14 08:01:03;;;;;;;;;5.33;4.33;;;;;22.67;44.12;101163.28;4913652;28;45829;-91
2023/07/14 08:03:29;;;;;;;;;4.33;4.33;;;;;22.76;44.37;101153.72;4889025;28;45876;-91
2023/07/14 08:06:02;;;;;;;;;4.33;4.33;;;;;22.80;43.78;101157.81;4899957;28;45351;-92
2023/07/14 08:08:28;;;;;;;;;4.33;3.33;;;;;22.91;44.12;101143.66;4901724;28;45390;-93
2023/07/14 08:10:54;;;;;;;;;7.00;3.67;;;;;22.98;43.85;101130.72;4885002;29;47901;-91
2023/07/14 08:13:19;;;;;;;;;6.00;5.00;;;;;23.14;43.69;101137.44;4901263;29;45368;-93
2023/07/14 08:15:45;;;;;;;;;4.00;4.00;;;;;23.19;43.83;101125.44;4884770;29;45376;-92
2023/07/14 08:18:10;;;;;;;;;6.33;4.67;;;;;23.26;43.31;101125.78;4919081;28;45311;-92
2023/07/14 08:20:37;;;;;;;;;5.00;3.67;;;;;23.35;42.79;101129.50;4900597;28;47175;-93
2023/07/14 08:23:10;;;;;;;;;5.67;3.67;;;;;23.35;42.99;101118.88;4900640;28;45247;-94
2023/07/14 08:25:37;;;;;;;;;5.33;5.33;;;;;23.37;42.94;101108.13;4898033;28;45276;-94
2023/07/14 08:28:04;;;;;;;;;6.00;5.00;;;;;23.50;42.30;101116.72;4907768;28;45422;-92
2023/07/14 08:30:30;;;;;;;;;7.00;3.00;;;;;23.54;42.02;101110.19;4889142;29;47034;-92
2023/07/14 08:33:04;;;;;;;;;3.00;3.00;;;;;23.62;41.98;101112.19;4912258;28;45569;-91
2023/07/14 08:35:29;;;;;;;;;3.67;3.67;;;;;23.70;41.56;101122.97;4912413;28;45315;-90
2023/07/14 08:37:54;;;;;;;;;5.00;2.33;;;;;23.65;41.21;101097.78;4914223;28;45456;-90
2023/07/14 08:40:26;;;;;;;;;3.33;3.33;;;;;23.83;40.74;101119.28;4900320;29;46370;-90
2023/07/14 08:43:10;;;;;;;;;3.00;3.00;;;;;23.93;40.61;101112.16;4894605;28;45505;-89
2023/07/14 08:45:43;;;;;;;;;5.00;2.00;;;;;24.03;40.90;101114.88;4892196;28;45698;-89
2023/07/14 08:48:30;;;;;;;;;3.00;3.00;;;;;24.12;40.08;101107.94;4901763;28;45359;-90
2023/07/14 08:51:03;;;;;;;;;6.00;3.33;;;;;24.09;40.08;101098.41;4918329;28;46008;-90
2023/07/14 08:53:32;;;;;;;;;3.67;3.33;;;;;24.19;39.56;101094.94;4914224;28;45397;-91
2023/07/14 08:56:03;;;;;;;;;4.67;4.67;;;;;24.24;39.89;101090.91;4914785;28;45348;-91
2023/07/14 08:58:34;;;;;;;;;4.67;2.00;;;;;24.26;39.16;101088.09;4909277;28;45532;-89
2023/07/14 09:01:42;;;;;;;;;5.00;2.00;;;;;24.29;38.97;101093.13;4905862;28;45520;-90
2023/07/14 09:04:20;;;;;;;;;2.33;2.33;;;;;24.32;39.16;101071.59;4821186;29;45699;-89
2023/07/14 09:06:47;;;;;;;;;3.50;3.00;;;;;24.40;38.83;101071.72;4883083;29;45403;-88
2023/07/14 09:09:19;;;;;;;;;4.67;3.00;;;;;24.42;38.54;101064.47;4912446;28;45717;-89
2023/07/14 09:12:02;;;;;;;;;8.00;5.00;;;;;24.54;38.37;101064.34;4897106;28;47164;-92
2023/07/14 09:14:47;;;;;;;;;2.33;2.33;;;;;24.59;37.68;101054.13;4910261;28;45581;-94
2023/07/14 09:17:31;;;;;;;;;3.33;3.33;;;;;24.71;37.55;101057.47;4913151;28;45362;-94
2023/07/14 09:20:13;;;;;;;;;3.67;2.67;;;;;24.84;37.60;101040.44;4919941;28;45347;-91
2023/07/14 09:23:03;;;;;;;;;3.00;3.00;;;;;24.92;37.47;101038.72;4921589;28;47767;-92
2023/07/14 09:25:40;;;;;;;;;2.67;2.67;;;;;25.11;36.55;101044.13;4923106;28;45304;-90
2023/07/14 09:28:20;;;;;;;;;3.67;3.33;;;;;25.16;36.41;101042.75;4910738;28;46223;-94
2023/07/14 09:30:47;;;;;;;;;3.00;3.00;;;;;25.19;36.55;101030.97;4922060;28;45439;-92
2023/07/14 09:33:17;;;;;;;;;2.00;2.00;;;;;25.35;36.19;101023.19;4911898;28;47238;-91
2023/07/14 09:35:45;;;;;;;;;5.00;5.00;;;;;25.47;35.62;101031.84;4911497;28;45396;-93
2023/07/14 09:38:39;;;;;;;;;4.33;4.33;;;;;25.61;36.00;101025.22;4916109;28;45441;-92
2023/07/14 09:41:11;;;;;;;;;5.00;4.00;;;;;25.72;35.96;101020.69;4905369;28;45540;-93
2023/07/14 09:43:36;;;;;;;;;2.67;1.33;;;;;25.85;35.72;101023.84;4915493;28;47341;-96
2023/07/14 09:46:02;;;;;;;;;4.67;3.00;;;;;25.88;34.83;101014.72;4920890;28;45428;-95
2023/07/14 09:48:34;;;;;;;;;2.00;2.00;;;;;25.81;34.89;101003.81;4919523;28;45494;-92
2023/07/14 09:51:17;;;;;;;;;2.67;2.00;;;;;26.07;34.25;101018.25;4922244;28;45346;-93
2023/07/14 09:53:59;;;;;;;;;1.67;1.67;;;;;26.16;33.66;101014.66;4912356;28;46842;-93
2023/07/14 09:56:37;;;;;;;;;1.00;1.00;;;;;26.24;34.40;101005.94;4908793;28;45444;-92
2023/07/14 09:59:07;;;;;;;;;4.33;2.67;;;;;26.39;33.58;101006.25;4917351;28;45444;-94
2023/07/14 10:01:33;;;;;;;;;3.67;3.67;;;;;26.48;34.06;100999.16;4912845;28;46169;-93
2023/07/14 10:04:16;;;;;;;;;2.33;2.33;;;;;26.55;33.57;100986.84;4914456;28;48068;-92
2023/07/14 10:06:42;;;;;;;;;4.00;2.33;;;;;26.70;33.74;100992.47;4915138;28;45297;-93
2023/07/14 10:09:16;;;;;;;;;2.33;2.33;;;;;26.80;33.82;100979.03;4932996;28;45573;-92
2023/07/14 10:11:51;;;;;;;;;5.00;2.00;;;;;26.86;33.11;100970.41;4914175;28;45647;-94
2023/07/14 10:14:27;;;;;;;;;2.00;2.00;;;;;27.09;32.27;100972.56;4912039;28;45609;-94
2023/07/14 10:16:54;;;;;;;;;2.33;2.00;;;;;27.20;32.52;100974.13;4892879;28;45671;-91
2023/07/14 10:19:21;;;;;;;;;2.00;2.00;;;;;27.26;32.10;100962.78;4904269;28;45449;-92
2023/07/14 10:21:57;;;;;;;;;3.33;1.67;;;;;27.40;32.07;100960.53;4911499;28;45626;-93
2023/07/14 10:24:24;;;;;;;;;3.00;2.33;;;;;27.44;32.19;100952.00;4919816;28;45563;-92
2023/07/14 10:27:04;;;;;;;;;3.00;2.00;;;;;27.55;31.84;100956.22;4906350;28;46070;-92
2023/07/14 10:29:46;;;;;;;;;2.00;2.00;;;;;27.68;31.85;100945.09;4914261;28;45767;-93
2023/07/14 10:32:24;;;;;;;;;1.33;1.33;;;;;27.83;31.90;100945.31;4905993;28;45482;-93
2023/07/14 10:35:09;;;;;;;;;1.33;1.00;;;;;27.95;32.35;100934.28;4903706;28;47666;-93
2023/07/14 10:37:45;;;;;;;;;2.33;2.33;;;;;28.17;32.17;100938.13;4901898;28;45375;-91
2023/07/14 10:40:22;;;;;;;;;2.00;2.00;;;;;28.37;31.90;100940.53;4908172;28;45395;-91
2023/07/14 10:43:19;;;;;;;;;2.00;2.00;;;;;28.63;31.12;100939.47;4917516;28;45648;-94
2023/07/14 10:45:49;;;;;;;;;2.00;2.00;;;;;28.71;29.45;100919.88;4913891;28;45482;-92
2023/07/14 10:48:24;;;;;;;;;2.67;2.67;;;;;28.86;30.44;100920.00;4914811;28;45387;-93
2023/07/14 10:51:46;;;;;;;;;3.00;2.00;;;;;29.00;28.86;100915.81;4917231;28;45247;-91
2023/07/14 10:54:17;;;;;;;;;2.33;2.00;;;;;29.12;30.03;100903.72;4841854;29;45403;-92
2023/07/14 10:56:48;;;;;;;;;2.00;2.00;;;;;29.17;29.84;100884.44;4839718;29;46309;-92
2023/07/14 10:59:34;;;;;;;;;4.00;2.00;;;;;29.13;29.26;100867.88;4856908;29;45463;-91
2023/07/14 11:02:21;;;;;;;;;3.00;3.00;;;;;29.38;29.54;100894.53;4871520;28;45458;-88
2023/07/14 11:04:54;;;;;;;;;4.00;2.00;;;;;29.59;29.91;100877.00;4899796;28;45578;-88
2023/07/14 11:07:30;;;;;;;;;1.00;1.00;;;;;29.72;28.95;100857.66;4900694;28;46570;-92
2023/07/14 11:09:57;;;;;;;;;5.00;3.33;;;;;29.90;29.81;100862.72;4911771;28;45482;-95
2023/07/14 11:12:50;;;;;;;;;4.33;1.67;;;;;30.08;29.50;100865.06;4907902;28;44765;-95
2023/07/14 11:15:23;;;;;;;;;2.00;2.00;;;;;30.23;29.34;100851.69;4915683;28;45503;-96
2023/07/14 11:18:11;;;;;;;;;4.00;3.00;;;;;30.39;29.11;100845.34;4899231;28;47374;-96
2023/07/14 11:20:48;;;;;;;;;1.00;0.00;;;;;30.61;28.77;100852.63;4903426;28;45400;-96
2023/07/14 11:23:38;;;;;;;;;1.00;1.00;;;;;30.85;29.15;100846.19;4909265;28;45865;-96
2023/07/14 11:26:20;;;;;;;;;2.33;2.00;;;;;31.02;28.70;100836.06;4922187;28;45435;-96
2023/07/14 11:29:10;;;;;;;;;2.00;0.33;;;;;31.04;28.39;100822.41;4888638;29;47788;-94
2023/07/14 11:31:57;;;;;;;;;0.00;0.00;;;;;31.20;27.97;100832.13;4903483;28;45458;-96
2023/07/14 11:34:39;;;;;;;;;2.33;1.67;;;;;31.26;28.25;100825.97;4905196;28;45382;-94
2023/07/14 11:37:23;;;;;;;;;4.67;3.00;;;;;31.32;27.41;100829.78;4885540;29;45303;-95
2023/07/14 11:39:56;;;;;;;;;1.33;1.33;;;;;31.42;27.96;100818.72;4893226;28;47379;-94
2023/07/14 11:42:27;;;;;;;;;2.33;2.33;;;;;31.52;28.05;100805.75;4886495;28;45478;-93
2023/07/14 11:44:55;;;;;;;;;1.33;1.33;;;;;31.59;27.53;100792.38;4890839;28;45722;-96
2023/07/14 11:47:41;;;;;;;;;3.00;1.33;;;;;31.71;27.51;100800.78;4890116;28;45559;-96
2023/07/14 11:50:15;;;;;;;;;2.00;2.00;;;;;31.85;26.77;100793.66;4899181;28;48041;-95
2023/07/14 11:52:40;;;;;;;;;3.00;3.00;;;;;31.83;27.12;100783.06;4913202;28;45432;-95
2023/07/14 11:57:50;;;;;;;;;3.33;1.67;;;;;31.80;27.06;100777.25;5277362;23;45957;-95
2023/07/14 12:00:28;;;;;;;;;2.00;2.00;;;;;31.80;26.39;100772.69;4919425;28;46686;-96
2023/07/14 12:02:53;;;;;;;;;1.33;1.33;;;;;31.82;26.77;100778.72;4900443;28;44884;-96
2023/07/14 12:05:36;;;;;;;;;2.67;2.33;;;;;31.82;26.07;100765.28;4905467;29;45613;-96
2023/07/14 12:08:04;;;;;;;;;3.25;3.25;;;;;31.86;25.75;100771.97;4924499;28;45468;-96
2023/07/14 12:11:02;;;;;;;;;4.00;3.00;;;;;31.85;25.65;100769.47;4925208;28;45601;-96
2023/07/14 12:13:38;;;;;;;;;2.00;2.00;;;;;31.80;25.52;100753.03;4901801;28;45267;-96
2023/07/14 12:16:25;;;;;;;;;2.33;1.67;;;;;31.73;25.60;100753.00;4904800;28;45385;-94
2023/07/14 12:19:03;;;;;;;;;2.67;2.00;;;;;31.74;25.96;100738.50;4934933;28;45512;-96
2023/07/14 12:21:42;;;;;;;;;4.00;2.00;;;;;31.77;25.91;100721.16;4919388;28;47405;-96
2023/07/14 12:24:11;;;;;;;;;1.00;1.00;;;;;31.88;25.77;100734.06;4914803;28;45604;-96
2023/07/14 12:26:52;;;;;;;;;1.33;1.33;;;;;31.93;25.62;100714.69;4914233;28;44815;-96
2023/07/14 12:29:21;;;;;;;;;2.67;2.00;;;;;31.98;25.89;100714.91;4895239;28;44750;-96
2023/07/14 12:31:54;;;;;;;;;3.50;2.50;;;;;32.06;25.52;100697.78;4912164;28;45688;-96
2023/07/14 12:34:27;;;;;;;;;2.33;2.33;;;;;32.15;25.79;100691.19;4925922;28;44840;-96
2023/07/14 12:36:53;;;;;;;;;5.00;4.00;;;;;32.27;26.04;100696.81;4918307;28;44778;-96
2023/07/14 12:39:19;;;;;;;;;4.67;2.67;;;;;32.37;25.50;100683.81;4919032;28;44860;-96
2023/07/14 12:41:50;;;;;;;;;2.33;1.33;;;;;32.54;25.84;100675.41;4930597;28;45075;-96
2023/07/14 12:44:33;;;;;;;;;3.00;3.00;;;;;32.65;25.81;100676.66;4917625;28;45388;-95
2023/07/14 12:46:59;;;;;;;;;3.33;3.33;;;;;32.82;25.75;100670.91;4936738;28;45294;-96
2023/07/14 12:49:33;;;;;;;;;2.00;2.00;;;;;32.83;25.59;100654.53;4927256;28;45009;-96
2023/07/14 12:52:33;;;;;;;;;1.00;1.00;;;;;32.97;25.22;100651.88;4919173;28;45890;-95